createdAt,value
2022-12-23T00:01:31.093Z,100356.81
2022-12-23T00:04:32.590Z,100366.50
2022-12-23T00:07:34.384Z,100369.09
2022-12-23T00:10:39.976Z,100375.16
2022-12-23T00:13:41.559Z,100378.69
2022-12-23T00:16:43.118Z,100384.78
2022-12-23T00:19:44.659Z,100376.97
2022-12-23T00:22:46.253Z,100376.09
2022-12-23T00:25:47.943Z,100378.75
2022-12-23T00:28:50.428Z,100384.84
2022-12-23T00:31:52.037Z,100381.59
2022-12-23T00:34:53.735Z,100390.50
2022-12-23T00:37:55.283Z,100382.69
2022-12-23T00:40:56.806Z,100395.75
2022-12-23T00:43:58.748Z,100394.78
2022-12-23T00:47:00.295Z,100394.84
2022-12-23T00:50:01.809Z,100392.22
2022-12-23T00:53:03.891Z,100396.59
2022-12-23T00:56:05.698Z,100404.50
2022-12-23T00:59:07.268Z,100395.75
2022-12-23T01:02:11.625Z,100399.22
2022-12-23T01:05:13.361Z,100404.47
2022-12-23T01:08:14.946Z,100409.63
2022-12-23T01:11:16.535Z,100409.72
2022-12-23T01:14:18.169Z,100418.53
2022-12-23T01:17:20.032Z,100420.31
2022-12-23T01:20:21.702Z,100419.41
2022-12-23T01:23:23.203Z,100425.56
2022-12-23T01:26:24.721Z,100423.88
2022-12-23T01:29:27.336Z,100421.22
2022-12-23T01:32:29.103Z,100424.66
2022-12-23T01:35:30.793Z,100434.41
2022-12-23T01:38:33.115Z,100439.78
2022-12-23T01:41:34.804Z,100446.84
2022-12-23T01:44:58.164Z,100449.53
2022-12-23T01:48:24.784Z,100458.25
2022-12-23T01:51:29.866Z,100463.50
2022-12-23T01:54:32.192Z,100479.34
2022-12-23T01:57:35.617Z,100470.63
2022-12-23T02:00:41.291Z,100475.94
2022-12-23T02:03:44.455Z,100475.09
2022-12-23T02:06:49.825Z,100481.28
2022-12-23T02:09:54.332Z,100492.66
2022-12-23T02:13:11.780Z,100493.59
2022-12-23T02:16:15.086Z,100490.06
2022-12-23T02:19:38.356Z,100494.50
2022-12-23T02:23:07.830Z,100498.84
2022-12-23T02:26:34.348Z,100505.84
2022-12-23T02:29:57.531Z,100508.53
2022-12-23T02:33:18.374Z,100519.03
2022-12-23T02:36:50.779Z,100523.47
2022-12-23T02:40:07.561Z,100527.84
2022-12-23T02:43:19.081Z,100537.56
2022-12-23T02:46:23.494Z,100540.22
2022-12-23T02:49:38.222Z,100549.03
2022-12-23T02:52:43.513Z,100555.16
2022-12-23T02:55:48.593Z,100555.19
2022-12-23T02:59:01.579Z,100549.09
2022-12-23T03:02:03.336Z,100548.25
2022-12-23T03:05:06.179Z,100541.38
2022-12-23T03:08:36.508Z,100541.41
2022-12-23T03:11:38.050Z,100536.28
2022-12-23T03:15:02.849Z,100535.47
2022-12-23T03:18:16.560Z,100532.09
2022-12-23T03:21:32.119Z,100533.94
2022-12-23T03:24:49.156Z,100527.03
2022-12-23T03:28:15.588Z,100540.19
2022-12-23T03:31:22.514Z,100538.47
2022-12-23T03:34:28.306Z,100547.19
2022-12-23T03:37:34.107Z,100543.72
2022-12-23T03:40:41.407Z,100539.31
2022-12-23T03:43:52.939Z,100542.88
2022-12-23T03:47:09.612Z,100542.03
2022-12-23T03:50:14.445Z,100535.03
2022-12-23T03:53:25.785Z,100549.06
2022-12-23T03:56:41.934Z,100544.69
2022-12-23T03:59:47.057Z,100549.06
2022-12-23T04:03:03.346Z,100557.72
2022-12-23T04:06:07.811Z,100570.06
2022-12-23T04:09:11.571Z,100563.94
2022-12-23T04:12:15.154Z,100579.75
2022-12-23T04:15:25.526Z,100581.50
2022-12-23T04:18:27.720Z,100574.47
2022-12-23T04:21:29.252Z,100582.38
2022-12-23T04:24:30.858Z,100585.00
2022-12-23T04:27:32.346Z,100589.38
2022-12-23T04:30:35.023Z,100585.81
2022-12-23T04:33:36.806Z,100589.38
2022-12-23T04:36:38.360Z,100587.59
2022-12-23T04:39:39.914Z,100574.56
2022-12-23T04:42:41.581Z,100580.69
2022-12-23T04:45:43.144Z,100564.94
2022-12-23T04:48:44.741Z,100560.56
2022-12-23T04:51:46.263Z,100564.03
2022-12-23T04:54:47.868Z,100555.28
2022-12-23T04:57:49.449Z,100561.44
2022-12-23T05:01:05.025Z,100568.44
2022-12-23T05:04:06.609Z,100569.31
2022-12-23T05:07:08.142Z,100565.84
2022-12-23T05:10:10.301Z,100564.94
2022-12-23T05:13:11.988Z,100575.50
2022-12-23T05:16:13.650Z,100575.53
2022-12-23T05:19:15.502Z,100586.06
2022-12-23T05:22:16.989Z,100598.28
2022-12-23T05:25:18.570Z,100600.03
2022-12-23T05:28:21.679Z,100600.91
2022-12-23T05:31:23.200Z,100607.00
2022-12-23T05:34:24.818Z,100605.28
2022-12-23T05:37:26.379Z,100604.41
2022-12-23T05:40:29.140Z,100609.69
2022-12-23T05:43:33.367Z,100608.78
2022-12-23T05:46:34.984Z,100595.63
2022-12-23T05:49:36.751Z,100594.72
2022-12-23T05:52:38.606Z,100597.38
2022-12-23T05:55:40.051Z,100584.22
2022-12-23T05:58:41.631Z,100587.69
2022-12-23T06:01:43.258Z,100580.66
2022-12-23T06:04:44.847Z,100573.63
2022-12-23T06:07:46.436Z,100558.81
2022-12-23T06:10:48.164Z,100556.19
2022-12-23T06:13:49.597Z,100550.06
2022-12-23T06:16:51.206Z,100554.44
2022-12-23T06:19:52.695Z,100560.56
2022-12-23T06:22:54.258Z,100567.63
2022-12-23T06:26:05.767Z,100573.78
2022-12-23T06:29:07.301Z,100569.50
2022-12-23T06:32:09.101Z,100572.13
2022-12-23T06:35:10.620Z,100582.66
2022-12-23T06:38:12.529Z,100584.41
2022-12-23T06:41:13.978Z,100590.50
2022-12-23T06:44:15.762Z,100587.88
2022-12-23T06:47:17.401Z,100593.97
2022-12-23T06:50:18.907Z,100592.22
2022-12-23T06:53:20.410Z,100593.94
2022-12-23T06:56:22.002Z,100586.91
2022-12-23T06:59:23.583Z,100598.28
2022-12-23T07:02:25.253Z,100596.50
2022-12-23T07:05:31.911Z,100601.75
2022-12-23T07:08:36.751Z,100607.88
2022-12-23T07:11:38.368Z,100610.47
2022-12-23T07:14:39.971Z,100619.19
2022-12-23T07:17:41.436Z,100622.72
2022-12-23T07:20:42.936Z,100609.59
2022-12-23T07:23:44.515Z,100609.63
2022-12-23T07:26:46.083Z,100616.63
2022-12-23T07:29:47.620Z,100618.38
2022-12-23T07:32:50.610Z,100602.66
2022-12-23T07:35:52.135Z,100597.41
2022-12-23T07:38:53.642Z,100600.03
2022-12-23T07:42:16.611Z,100586.94
2022-12-23T07:45:17.131Z,100594.78
2022-12-23T07:48:18.736Z,100593.03
2022-12-23T07:51:20.241Z,100598.28
2022-12-23T07:54:21.760Z,100588.66
2022-12-23T07:57:23.356Z,100581.66
2022-12-23T08:00:25.027Z,100586.00
2022-12-23T08:03:26.630Z,100579.91
2022-12-23T08:06:28.190Z,100577.22
2022-12-23T08:09:29.718Z,100573.72
2022-12-23T08:12:31.281Z,100575.44
2022-12-23T08:15:32.822Z,100570.19
2022-12-23T08:18:36.765Z,100570.16
2022-12-23T08:21:38.233Z,100552.63
2022-12-23T08:24:39.767Z,100548.22
2022-12-23T08:27:41.300Z,100546.38
2022-12-23T08:30:43.024Z,100553.38
2022-12-23T08:33:47.362Z,100552.44
2022-12-23T08:36:49.111Z,100542.88
2022-12-23T08:39:50.605Z,100545.50
2022-12-23T08:42:52.123Z,100537.59
2022-12-23T08:45:53.945Z,100541.94
2022-12-23T08:48:55.981Z,100535.94
2022-12-23T08:51:57.557Z,100537.75
2022-12-23T08:54:59.054Z,100541.13
2022-12-23T08:58:00.592Z,100535.00
2022-12-23T09:01:07.242Z,100534.09
2022-12-23T09:04:09.373Z,100526.22
2022-12-23T09:07:10.850Z,100528.78
2022-12-23T09:10:12.290Z,100519.97
2022-12-23T09:13:19.942Z,100519.94
2022-12-23T09:16:27.707Z,100505.03
2022-12-23T09:19:29.241Z,100511.09
2022-12-23T09:22:32.870Z,100512.88
2022-12-23T09:25:35.980Z,100519.88
2022-12-23T09:28:37.670Z,100509.31
2022-12-23T09:31:39.442Z,100501.38
2022-12-23T09:34:40.992Z,100498.72
2022-12-23T09:37:42.870Z,100488.22
2022-12-23T09:40:44.358Z,100477.66
2022-12-23T09:43:54.765Z,100481.97
2022-12-23T09:47:05.903Z,100471.41
2022-12-23T09:50:28.449Z,100457.31
2022-12-23T09:53:46.242Z,100445.03
2022-12-23T09:56:57.512Z,100441.50
2022-12-23T10:00:05.224Z,100447.59
2022-12-23T10:03:32.533Z,100433.63
2022-12-23T10:06:35.685Z,100430.88
2022-12-23T10:09:40.985Z,100431.72
2022-12-23T10:12:46.945Z,100425.56
2022-12-23T10:15:51.447Z,100446.50
2022-12-23T10:19:06.714Z,100443.06
2022-12-23T10:22:30.050Z,100439.53
2022-12-23T10:25:44.181Z,100431.66
2022-12-23T10:28:45.647Z,100425.56
2022-12-23T10:32:04.039Z,100419.53
2022-12-23T10:35:33.061Z,100420.41
2022-12-23T10:38:34.499Z,100411.75
2022-12-23T10:41:43.463Z,100414.41
2022-12-23T10:45:14.415Z,100408.28
2022-12-23T10:48:37.714Z,100399.56
2022-12-23T10:51:57.094Z,100403.88
2022-12-23T10:54:58.649Z,100393.31
2022-12-23T10:58:07.573Z,100395.91
2022-12-23T11:01:18.922Z,100397.66
2022-12-23T11:04:38.461Z,100405.50
2022-12-23T11:07:45.138Z,100397.63
2022-12-23T11:10:48.168Z,100381.94
2022-12-23T11:13:49.764Z,100381.00
2022-12-23T11:16:51.468Z,100366.16
2022-12-23T11:20:16.497Z,100352.13
2022-12-23T11:23:27.363Z,100338.09
2022-12-23T11:26:28.966Z,100319.75
2022-12-23T11:29:36.666Z,100307.56
2022-12-23T11:32:38.443Z,100292.72
2022-12-23T11:35:40.118Z,100297.97
2022-12-23T11:38:53.914Z,100291.75
2022-12-23T11:42:04.617Z,100284.72
2022-12-23T11:45:07.801Z,100280.38
2022-12-23T11:48:27.927Z,100275.06
2022-12-23T11:51:29.534Z,100271.59
2022-12-23T11:54:33.619Z,100261.97
2022-12-23T11:57:44.824Z,100264.56
2022-12-23T12:00:55.877Z,100260.19
2022-12-23T12:04:01.924Z,100253.13
2022-12-23T12:07:06.208Z,100242.63
2022-12-23T12:10:15.243Z,100232.94
2022-12-23T12:13:22.786Z,100209.38
2022-12-23T12:16:46.544Z,100208.53
2022-12-23T12:20:00.562Z,100194.44
2022-12-23T12:23:17.970Z,100182.28
2022-12-23T12:26:32.725Z,100166.53
2022-12-23T12:29:43.463Z,100173.50
2022-12-23T12:32:59.328Z,100166.53
2022-12-23T12:36:13.299Z,100152.59
2022-12-23T12:39:28.501Z,100148.13
2022-12-23T12:42:40.431Z,100134.78
2022-12-23T12:45:50.174Z,100134.50
2022-12-23T12:48:59.273Z,100129.34
2022-12-23T12:52:11.763Z,100129.34
2022-12-23T12:55:27.573Z,100129.41
2022-12-23T12:58:29.186Z,100128.63
2022-12-23T13:01:52.756Z,100128.69
2022-12-23T13:05:19.504Z,100120.94
2022-12-23T13:08:52.297Z,100116.63
2022-12-23T13:12:24.637Z,100125.44
2022-12-23T13:15:54.412Z,100117.63
2022-12-23T13:18:58.945Z,100099.28
2022-12-23T13:22:15.857Z,100094.97
2022-12-23T13:25:27.791Z,100066.13
2022-12-23T13:28:29.298Z,100039.00
2022-12-23T13:31:47.677Z,100045.97
2022-12-23T13:35:02.865Z,100038.84
2022-12-23T13:38:16.494Z,100029.00
2022-12-23T13:41:30.150Z,100028.91
2022-12-23T13:44:34.412Z,100029.56
2022-12-23T13:48:05.617Z,100029.03
2022-12-23T13:51:26.645Z,100033.81
2022-12-23T13:54:46.639Z,100024.72
2022-12-23T13:58:13.196Z,100013.34
2022-12-23T14:01:14.720Z,100018.81
2022-12-23T14:05:02.224Z,100018.06
2022-12-23T14:08:07.182Z,100011.38
2022-12-23T14:11:08.639Z,100015.06
2022-12-23T14:14:19.908Z,100021.97
2022-12-23T14:17:31.654Z,100027.22
2022-12-23T14:21:11.451Z,100002.66
2022-12-23T14:24:31.267Z,99993.75
2022-12-23T14:27:49.515Z,99988.56
2022-12-23T14:30:51.213Z,99994.81
2022-12-23T14:33:52.937Z,99994.81
2022-12-23T14:37:16.092Z,99997.50
2022-12-23T14:40:39.469Z,100012.59
2022-12-23T14:43:43.968Z,100005.69
2022-12-23T14:46:45.583Z,100004.84
2022-12-23T14:49:47.522Z,99998.84
2022-12-23T14:52:59.557Z,100006.75
2022-12-23T14:56:16.256Z,100024.25
2022-12-23T14:59:37.359Z,100019.88
2022-12-23T15:02:40.732Z,100004.09
2022-12-23T15:05:43.494Z,100008.56
2022-12-23T15:08:47.251Z,100011.19
2022-12-23T15:11:50.407Z,100010.97
2022-12-23T15:14:59.058Z,100009.34
2022-12-23T15:18:05.745Z,100004.94
2022-12-23T15:21:11.226Z,100004.09
2022-12-23T15:24:18.153Z,100001.50
2022-12-23T15:27:29.626Z,99993.75
2022-12-23T15:30:45.978Z,100001.69
2022-12-23T15:34:04.858Z,100006.13
2022-12-23T15:37:24.511Z,100007.88
2022-12-23T15:40:29.982Z,100001.78
2022-12-23T15:43:32.122Z,100001.69
2022-12-23T15:46:33.703Z,100018.13
2022-12-23T15:49:35.266Z,100018.22
2022-12-23T15:52:40.961Z,100011.25
2022-12-23T15:55:43.249Z,100010.44
2022-12-23T15:58:44.945Z,100020.13
2022-12-23T16:01:46.697Z,100021.81
2022-12-23T16:04:54.207Z,100026.16
2022-12-23T16:08:14.568Z,100030.59
2022-12-23T16:11:18.981Z,100033.22
2022-12-23T16:14:36.387Z,100035.03
2022-12-23T16:17:38.562Z,100031.50
2022-12-23T16:20:46.196Z,100034.13
2022-12-23T16:23:51.648Z,100044.72
2022-12-23T16:26:54.251Z,100042.09
2022-12-23T16:29:57.873Z,100045.53
2022-12-23T16:33:01.806Z,100043.91
2022-12-23T16:36:27.012Z,100052.69
2022-12-23T16:39:28.574Z,100049.22
2022-12-23T16:42:30.091Z,100044.81
2022-12-23T16:45:33.299Z,100049.06
2022-12-23T16:48:58.913Z,100047.34
2022-12-23T16:52:00.906Z,100044.63
2022-12-23T16:55:02.634Z,100049.75
2022-12-23T16:58:04.151Z,100042.78
2022-12-23T17:01:05.945Z,100046.16
2022-12-23T17:04:07.919Z,100052.09
2022-12-23T17:07:12.153Z,100058.75
2022-12-23T17:10:14.880Z,100057.19
2022-12-23T17:13:18.545Z,100054.97
2022-12-23T17:16:22.393Z,100062.28
2022-12-23T17:19:29.424Z,100061.09
2022-12-23T17:22:34.144Z,100062.72
2022-12-23T17:25:35.639Z,100066.97
2022-12-23T17:28:37.215Z,100048.31
2022-12-23T17:31:40.507Z,100056.13
2022-12-23T17:34:42.074Z,100056.78
2022-12-23T17:37:43.620Z,100065.22
2022-12-23T17:40:48.025Z,100068.53
2022-12-23T17:43:49.971Z,100071.03
2022-12-23T17:46:51.455Z,100072.69
2022-12-23T17:49:53.273Z,100073.38
2022-12-23T17:52:54.838Z,100078.53
2022-12-23T17:55:56.391Z,100075.00
2022-12-23T17:58:58.375Z,100079.25
2022-12-23T18:01:59.983Z,100077.63
2022-12-23T18:05:02.753Z,100084.53
2022-12-23T18:08:04.408Z,100094.34
2022-12-23T18:11:06.866Z,100091.78
2022-12-23T18:14:16.383Z,100101.59
2022-12-23T18:17:18.431Z,100099.13
2022-12-23T18:20:22.553Z,100110.53
2022-12-23T18:23:28.980Z,100104.28
2022-12-23T18:26:30.575Z,100103.28
2022-12-23T18:29:32.055Z,100105.91
2022-12-23T18:32:35.381Z,100120.75
2022-12-23T18:35:45.755Z,100122.56
2022-12-23T18:38:47.578Z,100119.13
2022-12-23T18:41:49.086Z,100122.72
2022-12-23T18:44:50.597Z,100130.63
2022-12-23T18:47:52.141Z,100130.63
2022-12-23T18:50:53.672Z,100131.38
2022-12-23T18:53:55.167Z,100139.31
2022-12-23T18:57:00.016Z,100140.81
2022-12-23T19:00:01.699Z,100150.34
2022-12-23T19:03:03.250Z,100151.16
2022-12-23T19:06:06.930Z,100151.25
2022-12-23T19:09:14.233Z,100152.25
2022-12-23T19:12:15.711Z,100159.16
2022-12-23T19:15:17.397Z,100149.53
2022-12-23T19:18:21.489Z,100149.53
2022-12-23T19:21:23.020Z,100164.53
2022-12-23T19:24:24.603Z,100155.81
2022-12-23T19:27:26.158Z,100167.38
2022-12-23T19:30:27.928Z,100168.03
2022-12-23T19:33:32.309Z,100170.69
2022-12-23T19:36:33.951Z,100171.59
2022-12-23T19:39:35.426Z,100177.69
2022-12-23T19:42:38.605Z,100184.59
2022-12-23T19:45:40.182Z,100188.22
2022-12-23T19:48:41.953Z,100191.44
2022-12-23T19:51:43.632Z,100200.16
2022-12-23T19:54:45.230Z,100204.53
2022-12-23T19:57:46.733Z,100207.06
2022-12-23T20:00:48.246Z,100216.78
2022-12-23T20:03:50.697Z,100226.31
2022-12-23T20:06:52.235Z,100224.59
2022-12-23T20:09:53.743Z,100241.31
2022-12-23T20:12:55.332Z,100251.03
2022-12-23T20:15:57.057Z,100240.50
2022-12-23T20:18:58.787Z,100251.03
2022-12-23T20:22:00.318Z,100260.72
2022-12-23T20:25:01.841Z,100262.47
2022-12-23T20:28:03.416Z,100261.63
2022-12-23T20:31:08.539Z,100279.41
2022-12-23T20:34:14.803Z,100276.69
2022-12-23T20:37:16.304Z,100287.31
2022-12-23T20:40:18.227Z,100288.19
2022-12-23T20:43:19.962Z,100295.09
2022-12-23T20:46:21.904Z,100293.41
2022-12-23T20:49:23.491Z,100293.66
2022-12-23T20:52:25.047Z,100312.91
2022-12-23T20:55:26.502Z,100304.19
2022-12-23T20:58:28.028Z,100313.94
2022-12-23T21:01:35.696Z,100320.94
2022-12-23T21:04:37.300Z,100334.16
2022-12-23T21:07:38.751Z,100322.84
2022-12-23T21:10:40.300Z,100334.31
2022-12-23T21:13:41.858Z,100334.34
2022-12-23T21:16:43.598Z,100342.88
2022-12-23T21:19:45.222Z,100351.78
2022-12-23T21:22:46.690Z,100357.03
2022-12-23T21:25:48.215Z,100358.00
2022-12-23T21:28:51.793Z,100360.59
2022-12-23T21:31:53.344Z,100373.69
2022-12-23T21:34:54.890Z,100377.34
2022-12-23T21:37:56.356Z,100366.84
2022-12-23T21:41:02.577Z,100393.28
2022-12-23T21:44:05.163Z,100394.28
2022-12-23T21:47:06.747Z,100394.34
2022-12-23T21:50:09.020Z,100409.28
2022-12-23T21:53:10.521Z,100416.41
2022-12-23T21:56:14.888Z,100417.47
2022-12-23T21:59:16.373Z,100416.84
2022-12-23T22:02:18.048Z,100417.75
2022-12-23T22:05:19.553Z,100434.44
2022-12-23T22:08:21.171Z,100427.38
2022-12-23T22:11:25.548Z,100430.16
2022-12-23T22:14:27.055Z,100439.91
2022-12-23T22:17:28.557Z,100433.78
2022-12-23T22:20:30.052Z,100440.94
2022-12-23T22:23:31.602Z,100453.25
2022-12-23T22:26:33.302Z,100462.94
2022-12-23T22:29:34.826Z,100460.25
2022-12-23T22:32:42.145Z,100466.53
2022-12-23T22:35:52.840Z,100465.78
2022-12-23T22:38:59.210Z,100472.06
2022-12-23T22:42:00.693Z,100471.94
2022-12-23T22:45:02.526Z,100480.84
2022-12-23T22:48:04.252Z,100486.88
2022-12-23T22:51:10.665Z,100493.69
2022-12-23T22:54:13.205Z,100491.25
2022-12-23T22:57:14.733Z,100506.66
2022-12-23T23:00:16.461Z,100504.88
2022-12-23T23:03:17.936Z,100501.53
2022-12-23T23:06:19.536Z,100500.56
2022-12-23T23:09:22.370Z,100510.19
2022-12-23T23:12:23.828Z,100510.44
2022-12-23T23:15:25.382Z,100512.16
2022-12-23T23:18:27.742Z,100509.66
2022-12-23T23:21:29.340Z,100517.56
2022-12-23T23:24:31.472Z,100528.97
2022-12-23T23:27:33.301Z,100535.00
2022-12-23T23:30:36.146Z,100538.47
2022-12-23T23:33:37.841Z,100541.88
2022-12-23T23:36:40.056Z,100539.19
2022-12-23T23:39:41.582Z,100550.56
2022-12-23T23:42:43.040Z,100559.22
2022-12-23T23:45:44.522Z,100566.25
2022-12-23T23:48:47.472Z,100562.91
2022-12-23T23:51:49.013Z,100567.28
2022-12-23T23:54:50.445Z,100574.53
2022-12-23T23:57:51.927Z,100576.53
